Time;durP1;ratioP1;P1;durP2;ratioP2;P2;SDS_P1;SDS_P2;PMS_P1;PMS_P2;Temp;Humidity;BMP_temperature;BMP_pressure;BME280_temperature;BME280_humidity;BME280_pressure;Samples;Min_cycle;Max_cycle;Signal;HPM_P1;HPM_P2
2022/09/30 00:01:06;;;;;;;6.07;3.08;;;;;;;12.26;97.24;99966.84;5018156;28;20068;-68
2022/09/30 00:03:31;;;;;;;6.13;3.17;;;;;;;12.25;97.19;99965.31;5024704;28;20428;-68
2022/09/30 00:06:03;;;;;;;3.85;2.92;;;;;;;12.27;96.71;99963.75;5029653;28;20036;-68
2022/09/30 00:08:29;;;;;;;5.57;3.03;;;;;;;12.20;97.14;99963.75;5023724;28;20038;-68
2022/09/30 00:10:59;;;;;;;4.72;2.83;;;;;;;12.21;97.13;99961.84;5039588;28;20090;-68
2022/09/30 00:13:25;;;;;;;6.18;3.70;;;;;;;12.20;97.40;99963.75;5016601;28;20033;-68
2022/09/30 00:15:51;;;;;;;7.03;3.72;;;;;;;12.20;97.23;99962.97;5013315;28;20032;-68
2022/09/30 00:18:16;;;;;;;5.60;3.15;;;;;;;12.23;96.83;99967.63;5030730;28;20030;-68
2022/09/30 00:20:41;;;;;;;7.57;3.33;;;;;;;12.09;97.04;99976.47;5029724;28;20075;-68
2022/09/30 00:23:07;;;;;;;6.43;3.45;;;;;;;12.14;97.76;99975.28;5020152;28;20033;-68
2022/09/30 00:25:32;;;;;;;4.68;2.90;;;;;;;12.14;97.70;99981.47;5032618;28;20037;-68
2022/09/30 00:27:58;;;;;;;4.43;3.25;;;;;;;12.14;97.63;99964.50;5029683;28;20042;-68
2022/09/30 00:30:23;;;;;;;4.82;3.05;;;;;;;12.21;97.98;99969.94;5023561;28;20034;-68
2022/09/30 00:32:49;;;;;;;5.93;3.22;;;;;;;12.18;98.43;99967.97;5023142;28;20033;-68
2022/09/30 00:35:14;;;;;;;5.80;3.65;;;;;;;12.17;98.64;99972.63;5023705;28;20037;-68
2022/09/30 00:37:40;;;;;;;7.60;3.53;;;;;;;12.21;98.91;99967.22;5011262;28;20038;-68
2022/09/30 00:40:06;;;;;;;7.50;3.65;;;;;;;12.21;98.84;99967.22;5027848;28;20498;-68
2022/09/30 00:42:32;;;;;;;5.57;3.15;;;;;;;12.31;98.69;99972.63;5032956;28;20125;-68
2022/09/30 00:45:05;;;;;;;5.45;3.90;;;;;;;12.30;98.36;99967.63;5019790;28;20426;-68
2022/09/30 00:47:53;;;;;;;4.68;3.33;;;;;;;12.26;98.61;99972.25;5026065;28;20048;-68
2022/09/30 00:50:44;;;;;;;5.22;3.17;;;;;;;12.20;98.38;99973.78;5037930;28;20048;-68
2022/09/30 00:53:25;;;;;;;6.47;3.58;;;;;;;12.30;98.12;99965.72;5025147;28;20045;-68
2022/09/30 00:56:08;;;;;;;5.43;3.17;;;;;;;12.31;97.98;99969.19;5019932;28;20040;-68
2022/09/30 00:58:38;;;;;;;6.30;3.33;;;;;;;12.21;97.96;99968.00;5026648;28;20046;-68
2022/09/30 01:01:04;;;;;;;6.07;2.90;;;;;;;12.25;97.82;99979.56;5023032;28;20037;-68
2022/09/30 01:03:42;;;;;;;4.78;3.15;;;;;;;12.27;97.34;99981.91;5016807;28;20095;-68
2022/09/30 01:06:08;;;;;;;4.72;3.17;;;;;;;12.18;97.51;99984.16;5030706;28;20052;-68
2022/09/30 01:08:37;;;;;;;6.30;2.92;;;;;;;12.13;97.53;99985.34;5034246;28;20050;-68
2022/09/30 01:11:03;;;;;;;8.10;3.55;;;;;;;12.08;97.54;99988.38;5029905;28;20493;-68
2022/09/30 01:13:31;;;;;;;4.88;3.15;;;;;;;11.98;97.47;99989.13;5013057;28;20140;-68
2022/09/30 01:16:15;;;;;;;5.93;3.08;;;;;;;11.89;97.68;99993.31;5030506;28;20029;-68
2022/09/30 01:18:53;;;;;;;6.20;3.47;;;;;;;11.85;97.78;99997.94;5028907;28;20033;-68
2022/09/30 01:21:36;;;;;;;5.80;2.75;;;;;;;11.85;97.80;99985.22;5034661;28;20053;-68
2022/09/30 01:24:25;;;;;;;5.30;3.08;;;;;;;11.81;96.49;99984.44;5022665;28;20112;-68
2022/09/30 01:27:15;;;;;;;3.85;2.75;;;;;;;11.90;96.42;99986.78;5026890;28;20025;-68
2022/09/30 01:29:40;;;;;;;5.75;3.35;;;;;;;11.78;96.41;99996.78;5025372;28;20494;-68
2022/09/30 01:32:38;;;;;;;6.57;3.05;;;;;;;11.62;96.64;99988.19;5031128;28;20105;-68
2022/09/30 01:35:19;;;;;;;6.65;3.05;;;;;;;11.57;97.08;99993.16;5001120;28;20053;-68
2022/09/30 01:38:06;;;;;;;5.78;3.08;;;;;;;11.50;96.52;99995.78;5030781;28;20052;-68
2022/09/30 01:40:47;;;;;;;4.22;2.92;;;;;;;11.49;96.85;99996.97;5006226;28;20516;-68
2022/09/30 01:43:19;;;;;;;;;;;;;;;11.37;96.10;99995.34;5021578;28;20033;-68
2022/09/30 01:46:07;;;;;;;4.07;2.47;;;;;;;11.32;96.39;99994.94;5028822;28;19920;-68
2022/09/30 01:48:55;;;;;;;5.45;3.28;;;;;;;11.25;96.75;100000.25;5025909;28;20034;-68
2022/09/30 01:51:27;;;;;;;4.40;2.90;;;;;;;11.24;97.08;100004.91;5028604;28;20037;-68
2022/09/30 01:54:12;;;;;;;3.90;2.65;;;;;;;11.16;96.66;99999.81;5028851;28;20078;-68
2022/09/30 01:56:45;;;;;;;4.80;3.00;;;;;;;11.15;96.62;100000.97;5025114;28;20069;-68
2022/09/30 01:59:19;;;;;;;5.63;3.67;;;;;;;11.20;96.91;100008.72;5002266;28;20405;-68
2022/09/30 02:01:54;;;;;;;3.88;2.67;;;;;;;11.24;96.16;100014.91;5012669;28;20025;-68
2022/09/30 02:04:37;;;;;;;5.85;3.50;;;;;;;11.18;96.08;100006.41;5026582;28;20111;-68
2022/09/30 02:07:07;;;;;;;6.97;3.65;;;;;;;11.24;96.34;100025.69;5018598;28;20030;-68
2022/09/30 02:09:48;;;;;;;5.40;3.15;;;;;;;11.27;95.76;100025.69;5027374;28;20033;-68
2022/09/30 02:12:19;;;;;;;3.83;3.03;;;;;;;11.20;95.80;100019.50;5027237;28;20061;-68
2022/09/30 02:14:50;;;;;;;8.85;3.35;;;;;;;11.22;96.09;100019.88;5027226;28;20048;-68
2022/09/30 02:17:25;;;;;;;;;;;;;;;11.31;95.96;100013.03;5030119;28;20554;-68
2022/09/30 02:19:58;;;;;;;5.70;2.85;;;;;;;11.29;96.34;100011.84;5025822;28;20004;-68
2022/09/30 02:22:30;;;;;;;4.93;3.25;;;;;;;11.29;96.40;100022.63;5023962;28;20480;-68
2022/09/30 02:25:02;;;;;;;6.45;2.95;;;;;;;11.30;97.23;100019.56;5028073;28;20109;-68
2022/09/30 02:27:41;;;;;;;5.63;3.10;;;;;;;11.30;96.82;100024.19;5019001;28;20039;-68
2022/09/30 02:30:08;;;;;;;5.47;3.40;;;;;;;11.36;97.11;100028.84;5026702;28;20044;-68
2022/09/30 02:32:42;;;;;;;4.72;2.90;;;;;;;11.43;97.90;100018.13;5024591;28;20041;-68
2022/09/30 02:35:19;;;;;;;4.72;2.88;;;;;;;11.49;98.74;100027.41;5013292;28;20039;-68
2022/09/30 02:37:51;;;;;;;6.10;3.70;;;;;;;11.62;98.28;100025.16;5036640;28;20668;-68
2022/09/30 02:40:30;;;;;;;4.82;3.33;;;;;;;11.60;98.80;100030.16;5012265;28;20033;-68
2022/09/30 02:42:56;;;;;;;7.13;3.67;;;;;;;11.71;98.90;100031.78;5028650;28;20036;-68
2022/09/30 02:45:23;;;;;;;7.82;3.40;;;;;;;11.73;99.26;100037.56;5022769;28;20021;-68
2022/09/30 02:48:06;;;;;;;7.97;3.83;;;;;;;11.76;99.53;100041.44;5020285;28;20030;-68
2022/09/30 02:50:59;;;;;;;7.90;3.92;;;;;;;11.79;99.38;100038.00;5035068;28;20091;-68
2022/09/30 02:53:33;;;;;;;5.60;3.33;;;;;;;11.84;99.68;100042.25;5023262;28;20480;-68
2022/09/30 02:56:20;;;;;;;6.85;3.88;;;;;;;11.81;100.00;100035.69;5022364;28;20084;-68
2022/09/30 02:58:47;;;;;;;5.97;3.72;;;;;;;11.85;100.00;100041.09;5013714;28;20037;-68
2022/09/30 03:01:14;;;;;;;6.22;3.65;;;;;;;11.87;100.00;100038.78;5030096;28;20040;-68
2022/09/30 03:03:56;;;;;;;6.10;3.38;;;;;;;11.92;100.00;100049.25;5024214;28;20573;-68
2022/09/30 03:06:22;;;;;;;7.88;3.97;;;;;;;11.89;100.00;100047.28;5016210;28;20387;-68
2022/09/30 03:08:48;;;;;;;7.72;4.25;;;;;;;11.92;100.00;100051.94;5032364;28;20112;-68
2022/09/30 03:11:21;;;;;;;6.35;3.72;;;;;;;11.77;100.00;100045.69;5019260;28;20042;-68
2022/09/30 03:14:00;;;;;;;6.05;3.67;;;;;;;11.84;100.00;100042.25;5022060;28;20041;-68
2022/09/30 03:16:54;;;;;;;6.85;3.63;;;;;;;11.92;100.00;100039.22;5023132;28;20042;-68
2022/09/30 03:19:41;;;;;;;6.13;4.00;;;;;;;11.98;100.00;100040.38;5025353;28;20069;-68
2022/09/30 03:22:17;;;;;;;7.57;4.32;;;;;;;11.95;100.00;100043.06;5024433;28;20505;-68
2022/09/30 03:25:02;;;;;;;8.00;5.00;;;;;;;11.95;100.00;100032.28;5033144;28;20041;-68
2022/09/30 03:27:42;;;;;;;7.10;3.70;;;;;;;11.96;100.00;100044.63;5028796;28;20053;-68
2022/09/30 03:30:31;;;;;;;7.30;4.20;;;;;;;11.97;100.00;100046.94;5021449;28;20456;-68
2022/09/30 03:33:16;;;;;;;7.47;4.45;;;;;;;11.96;99.74;100048.13;5028889;28;20044;-68
2022/09/30 03:35:59;;;;;;;6.60;3.72;;;;;;;11.85;100.00;100057.28;5026842;28;20072;-68
2022/09/30 03:38:45;;;;;;;4.82;3.28;;;;;;;11.92;99.79;100062.72;5025734;28;20037;-68
2022/09/30 03:41:19;;;;;;;5.57;3.28;;;;;;;11.84;100.00;100061.94;5030374;28;20033;-68
2022/09/30 03:43:56;;;;;;;6.50;3.65;;;;;;;11.89;100.00;100063.47;5027218;28;20069;-68
2022/09/30 03:46:30;;;;;;;4.97;3.38;;;;;;;11.77;99.83;100073.44;5007306;28;20394;-68
2022/09/30 03:49:00;;;;;;;6.65;3.95;;;;;;;11.84;99.95;100071.94;5029790;28;20047;-68
2022/09/30 03:51:28;;;;;;;5.18;3.40;;;;;;;11.85;99.95;100068.84;5030222;28;20490;-68
2022/09/30 03:53:54;;;;;;;6.10;3.63;;;;;;;11.83;99.75;100057.66;5026545;28;20037;-68
2022/09/30 03:56:25;;;;;;;5.38;3.67;;;;;;;11.81;100.00;100065.38;5017809;28;20061;-68
2022/09/30 03:58:50;;;;;;;6.97;3.92;;;;;;;11.83;99.84;100070.41;5032302;28;20041;-68
2022/09/30 04:01:21;;;;;;;5.38;3.45;;;;;;;11.79;99.79;100073.06;5018498;28;20121;-68
2022/09/30 04:03:51;;;;;;;7.38;4.30;;;;;;;11.84;99.71;100067.31;5021477;28;20059;-68
2022/09/30 04:06:18;;;;;;;12.18;4.57;;;;;;;11.88;99.88;100070.03;5016579;28;20549;-68
2022/09/30 04:08:44;;;;;;;5.03;3.20;;;;;;;11.78;99.27;100076.91;5020853;28;20037;-68
2022/09/30 04:11:10;;;;;;;6.93;4.20;;;;;;;11.69;99.50;100088.03;5013069;28;20134;-68
2022/09/30 04:16:17;;;;;;;5.55;3.20;;;;;;;11.67;99.62;100092.28;5398526;22;20041;-64
2022/09/30 04:18:43;;;;;;;5.75;3.53;;;;;;;11.68;99.45;100097.28;5040519;28;20048;-66
2022/09/30 04:21:11;;;;;;;5.95;3.90;;;;;;;11.60;99.76;100086.78;5052689;28;20049;-66
2022/09/30 04:23:38;;;;;;;7.03;4.07;;;;;;;11.59;99.15;100085.25;5050171;28;20036;-66
2022/09/30 04:26:10;;;;;;;6.50;3.67;;;;;;;11.58;99.27;100095.25;5045515;28;20052;-66
2022/09/30 04:28:36;;;;;;;9.07;3.97;;;;;;;11.60;99.48;100101.03;5034425;28;20036;-65
2022/09/30 04:31:04;;;;;;;5.40;3.03;;;;;;;11.63;98.81;100096.84;5076924;22;20032;-68
2022/09/30 04:33:30;;;;;;;8.15;3.75;;;;;;;11.51;99.53;100106.00;4996407;28;20034;-68
2022/09/30 04:35:58;;;;;;;6.28;3.65;;;;;;;11.47;99.79;100107.09;5026311;28;20025;-68
2022/09/30 04:38:25;;;;;;;7.40;3.88;;;;;;;11.44;99.36;100110.56;5008877;28;20033;-68
2022/09/30 04:40:51;;;;;;;7.72;4.57;;;;;;;11.45;99.68;100117.50;5029310;28;20061;-68
2022/09/30 04:43:18;;;;;;;7.70;4.00;;;;;;;11.50;100.00;100119.81;5012521;28;20039;-68
2022/09/30 04:45:45;;;;;;;5.82;3.60;;;;;;;11.46;99.62;100119.03;5013319;28;20080;-68
2022/09/30 04:48:11;;;;;;;5.45;3.03;;;;;;;11.43;99.71;100117.09;5014236;28;20107;-68
2022/09/30 04:50:37;;;;;;;6.95;4.05;;;;;;;11.44;100.00;100111.31;5023263;28;20033;-68
2022/09/30 04:53:05;;;;;;;6.65;3.72;;;;;;;11.50;99.64;100111.75;5025940;28;20030;-68
2022/09/30 04:55:31;;;;;;;6.13;3.58;;;;;;;11.53;99.22;100119.09;5020595;28;20099;-68
2022/09/30 04:57:56;;;;;;;8.02;4.13;;;;;;;11.46;99.54;100122.50;5013924;28;20518;-68
2022/09/30 05:00:23;;;;;;;5.15;3.40;;;;;;;11.45;99.80;100122.88;5015925;28;20390;-68
2022/09/30 05:02:49;;;;;;;4.93;3.47;;;;;;;11.42;99.15;100129.78;5019913;28;20072;-68
2022/09/30 05:05:18;;;;;;;7.55;3.88;;;;;;;11.43;99.27;100141.34;5013643;28;20040;-68
2022/09/30 05:07:43;;;;;;;6.13;3.67;;;;;;;11.34;98.65;100132.81;5016922;28;20049;-68
2022/09/30 05:10:10;;;;;;;5.80;3.40;;;;;;;11.20;98.62;100144.25;5013501;28;20397;-68
2022/09/30 05:12:37;;;;;;;6.22;3.60;;;;;;;11.27;98.97;100149.69;5018408;28;20091;-68
2022/09/30 05:15:04;;;;;;;8.30;3.83;;;;;;;11.27;98.73;100151.59;5014681;28;20037;-68
2022/09/30 05:17:30;;;;;;;12.07;4.60;;;;;;;11.31;98.62;100155.09;5025959;28;20414;-68
2022/09/30 05:19:56;;;;;;;9.57;3.90;;;;;;;11.28;98.36;100161.25;5010105;28;20030;-68
2022/09/30 05:22:23;;;;;;;6.80;3.60;;;;;;;11.22;98.77;100174.28;5026045;28;20120;-68
2022/09/30 05:24:52;;;;;;;5.93;3.33;;;;;;;11.19;98.30;100158.84;5017096;28;20432;-68
2022/09/30 05:27:22;;;;;;;8.45;4.88;;;;;;;11.19;98.12;100158.09;5014360;28;20394;-68
2022/09/30 05:29:47;;;;;;;5.93;3.53;;;;;;;11.22;98.22;100162.72;5012039;28;20041;-68
2022/09/30 05:32:13;;;;;;;6.78;3.90;;;;;;;11.15;98.90;100157.28;5008377;28;20037;-68
2022/09/30 05:34:38;;;;;;;6.88;3.83;;;;;;;11.12;98.10;100153.41;5013875;28;20096;-68
2022/09/30 05:37:05;;;;;;;5.75;3.50;;;;;;;11.14;98.28;100155.72;5016470;28;20033;-68
2022/09/30 05:39:30;;;;;;;7.15;3.70;;;;;;;11.02;98.20;100164.84;5006937;28;20520;-68
2022/09/30 05:41:59;;;;;;;8.02;4.25;;;;;;;10.98;98.79;100158.63;5013897;28;20038;-68
2022/09/30 05:44:24;;;;;;;11.20;3.80;;;;;;;10.94;98.74;100174.00;4990362;28;20042;-68
2022/09/30 05:46:50;;;;;;;6.63;3.70;;;;;;;10.94;98.41;100173.22;5016698;28;20038;-68
2022/09/30 05:49:15;;;;;;;4.72;3.38;;;;;;;10.95;98.98;100170.16;5010791;28;20037;-68
2022/09/30 05:51:41;;;;;;;6.88;3.25;;;;;;;11.00;99.09;100177.13;5013408;28;20076;-68
2022/09/30 05:54:09;;;;;;;6.00;3.30;;;;;;;11.09;98.61;100178.38;5019211;28;20045;-68
2022/09/30 05:56:34;;;;;;;6.40;3.60;;;;;;;11.05;98.29;100187.59;5011819;28;20030;-68
2022/09/30 05:59:00;;;;;;;6.55;3.65;;;;;;;11.14;98.15;100182.66;5016199;28;20491;-68
2022/09/30 06:01:25;;;;;;;7.10;4.28;;;;;;;11.08;98.75;100184.13;5006706;28;20117;-68
2022/09/30 06:03:51;;;;;;;6.07;3.85;;;;;;;11.16;98.98;100185.78;5014353;28;20498;-68
2022/09/30 06:06:18;;;;;;;7.00;3.97;;;;;;;11.15;98.47;100184.22;5013593;28;20044;-68
2022/09/30 06:08:43;;;;;;;7.45;4.32;;;;;;;11.15;98.86;100184.22;5015179;28;20037;-68
2022/09/30 06:11:12;;;;;;;7.50;4.75;;;;;;;11.20;99.10;100184.66;5022787;28;20092;-69
2022/09/30 06:13:38;;;;;;;8.90;4.28;;;;;;;11.20;98.81;100187.38;5014294;28;20033;-69
2022/09/30 06:16:04;;;;;;;10.15;4.55;;;;;;;11.19;99.83;100190.44;5009426;28;20111;-69
2022/09/30 06:18:30;;;;;;;6.13;4.32;;;;;;;11.11;100.00;100194.19;5021325;28;20053;-68
2022/09/30 06:20:57;;;;;;;5.32;3.63;;;;;;;11.22;99.82;100205.84;5019862;28;20025;-68
2022/09/30 06:23:23;;;;;;;5.80;3.60;;;;;;;11.24;99.68;100204.34;5019295;28;20523;-69
2022/09/30 06:25:50;;;;;;;8.43;5.00;;;;;;;11.20;100.00;100197.38;4994253;28;20022;-69
2022/09/30 06:28:15;;;;;;;4.85;3.50;;;;;;;11.08;100.00;100200.31;5010645;28;20107;-69
2022/09/30 06:30:43;;;;;;;8.77;3.95;;;;;;;11.17;100.00;100200.81;5008461;28;20065;-68
2022/09/30 06:33:09;;;;;;;15.63;4.68;;;;;;;11.11;100.00;100199.59;5021949;28;20037;-69
2022/09/30 06:35:34;;;;;;;11.18;4.65;;;;;;;11.19;100.00;100199.28;5015395;28;20517;-69
2022/09/30 06:38:00;;;;;;;9.43;4.55;;;;;;;11.23;100.00;100199.31;5028599;28;20037;-67
2022/09/30 06:40:25;;;;;;;8.73;4.43;;;;;;;11.30;100.00;100210.19;5016819;28;20036;-69
2022/09/30 06:42:56;;;;;;;7.88;4.07;;;;;;;11.27;100.00;100219.00;5023091;28;20672;-68
2022/09/30 06:45:22;;;;;;;7.90;3.63;;;;;;;11.32;100.00;100214.06;5019137;28;20045;-69
2022/09/30 06:47:50;;;;;;;6.95;3.70;;;;;;;11.44;100.00;100221.09;5010330;28;20038;-69
2022/09/30 06:50:16;;;;;;;6.50;4.13;;;;;;;11.42;100.00;100221.47;5007378;28;20038;-70
2022/09/30 06:52:42;;;;;;;7.05;4.00;;;;;;;11.46;100.00;100222.25;5025289;28;20034;-68
2022/09/30 06:55:07;;;;;;;6.00;4.05;;;;;;;11.54;100.00;100223.88;5027916;28;20116;-68
2022/09/30 06:57:34;;;;;;;6.55;4.22;;;;;;;11.43;100.00;100225.72;5014724;28;20048;-69
2022/09/30 07:00:00;;;;;;;7.68;4.05;;;;;;;11.55;100.00;100224.66;5020589;28;20037;-69
2022/09/30 07:02:28;;;;;;;6.78;4.13;;;;;;;11.60;100.00;100221.63;5014104;28;20552;-68
2022/09/30 07:04:53;;;;;;;12.88;4.32;;;;;;;11.59;100.00;100212.00;5003919;28;20500;-69
2022/09/30 07:07:21;;;;;;;7.65;4.57;;;;;;;11.67;100.00;100213.66;5017525;28;20037;-68
2022/09/30 07:09:46;;;;;;;6.75;3.75;;;;;;;11.65;100.00;100213.22;5018893;28;20038;-68
2022/09/30 07:12:12;;;;;;;6.97;4.18;;;;;;;11.53;100.00;100216.97;5018037;28;20084;-68
2022/09/30 07:14:37;;;;;;;8.18;4.22;;;;;;;11.32;100.00;100213.28;5008989;28;20040;-68
2022/09/30 07:17:05;;;;;;;10.20;5.05;;;;;;;11.30;100.00;100224.44;5010588;28;20037;-68
2022/09/30 07:19:33;;;;;;;10.73;5.10;;;;;;;11.55;100.00;100214.66;5002167;28;20591;-68
2022/09/30 07:22:41;;;;;;;7.85;4.15;;;;;;;11.67;100.00;100219.03;5014916;28;20069;-68
2022/09/30 07:24:46;;;;;;;6.22;3.60;;;;;;;11.96;100.00;100228.13;4998942;28;20045;-68
2022/09/30 07:27:12;;;;;;;6.53;3.85;;;;;;;12.08;100.00;100223.19;5012903;28;20111;-69
2022/09/30 07:29:39;;;;;;;7.50;4.22;;;;;;;12.05;100.00;100210.47;4996555;28;20064;-68
2022/09/30 07:32:06;;;;;;;14.60;4.80;;;;;;;12.05;100.00;100218.56;5011550;28;20561;-68
2022/09/30 07:34:31;;;;;;;8.52;4.30;;;;;;;12.37;100.00;100216.84;5009745;28;20494;-68
2022/09/30 07:36:56;;;;;;;9.40;4.72;;;;;;;12.61;100.00;100215.41;5013978;28;20025;-68
2022/09/30 07:39:22;;;;;;;12.15;4.95;;;;;;;12.93;99.31;100216.31;5012682;28;20108;-68
2022/09/30 07:41:47;;;;;;;9.05;4.47;;;;;;;12.81;98.78;100219.38;5010654;28;20093;-69
2022/09/30 07:44:14;;;;;;;6.57;4.03;;;;;;;13.13;99.35;100214.88;5010264;28;20037;-68
2022/09/30 07:46:41;;;;;;;6.53;3.58;;;;;;;13.53;98.71;100219.97;5013027;28;20041;-68
2022/09/30 07:49:22;;;;;;;10.52;4.72;;;;;;;13.83;97.28;100216.13;5006540;28;20033;-68
2022/09/30 07:51:49;;;;;;;7.38;4.22;;;;;;;14.11;97.08;100214.16;5011004;28;20041;-68
2022/09/30 07:54:21;;;;;;;6.10;3.17;;;;;;;14.20;95.26;100225.41;5003256;28;20030;-69
2022/09/30 07:56:47;;;;;;;5.28;3.00;;;;;;;14.48;95.07;100234.66;5008551;28;20103;-69
2022/09/30 07:59:12;;;;;;;6.60;3.50;;;;;;;14.48;93.16;100237.38;5007961;28;20054;-69
2022/09/30 08:01:39;;;;;;;8.50;3.45;;;;;;;14.73;91.86;100244.25;5005671;28;20048;-67
2022/09/30 08:04:07;;;;;;;6.55;3.58;;;;;;;14.91;91.01;100238.75;5012913;28;20052;-69
2022/09/30 08:06:37;;;;;;;6.97;4.00;;;;;;;15.00;92.08;100244.56;5016072;28;20024;-69
2022/09/30 08:09:03;;;;;;;4.35;2.92;;;;;;;15.18;89.92;100254.13;5009912;28;20108;-69
2022/09/30 08:11:32;;;;;;;6.18;3.20;;;;;;;15.30;89.21;100256.41;5016982;28;20037;-68
2022/09/30 08:13:57;;;;;;;4.90;3.03;;;;;;;15.34;89.26;100245.53;5021933;28;20498;-68
2022/09/30 08:16:24;;;;;;;6.97;2.85;;;;;;;15.58;88.82;100254.72;5015828;28;20040;-68
2022/09/30 08:18:58;;;;;;;5.70;3.13;;;;;;;15.96;87.62;100254.44;4999798;28;20041;-68
2022/09/30 08:21:24;;;;;;;3.80;2.70;;;;;;;16.20;85.26;100258.13;5011440;28;20040;-68
2022/09/30 08:23:50;;;;;;;4.47;2.70;;;;;;;16.22;84.11;100259.25;5009865;28;20497;-68
2022/09/30 08:26:16;;;;;;;5.50;2.80;;;;;;;16.34;84.76;100273.53;5008025;28;20111;-69
2022/09/30 08:28:45;;;;;;;12.82;2.85;;;;;;;16.40;83.47;100261.03;5010494;28;20168;-68
2022/09/30 08:31:16;;;;;;;6.03;3.05;;;;;;;16.39;84.87;100259.50;5005478;28;20620;-68
2022/09/30 08:33:42;;;;;;;4.32;2.83;;;;;;;16.11;84.95;100268.66;5007566;28;20129;-69
2022/09/30 08:36:13;;;;;;;3.92;2.25;;;;;;;16.25;84.84;100263.91;5009299;28;20041;-68
2022/09/30 08:38:40;;;;;;;4.50;2.67;;;;;;;16.41;84.36;100266.06;5010470;28;20494;-69
2022/09/30 08:41:05;;;;;;;3.83;2.50;;;;;;;16.07;83.77;100270.63;5011508;28;20045;-68
2022/09/30 08:43:40;;;;;;;3.45;2.45;;;;;;;16.04;86.37;100272.22;5011055;28;20835;-67
2022/09/30 08:46:06;;;;;;;3.10;2.28;;;;;;;16.58;83.94;100275.25;5011703;28;20041;-67
2022/09/30 08:48:37;;;;;;;3.78;2.40;;;;;;;16.71;84.26;100276.25;5008755;28;20422;-69
2022/09/30 08:51:26;;;;;;;5.15;2.67;;;;;;;16.88;82.64;100281.50;5009637;28;20042;-68
2022/09/30 08:53:54;;;;;;;3.42;2.28;;;;;;;16.60;81.36;100278.34;5009549;28;20050;-68
2022/09/30 08:56:26;;;;;;;3.15;2.28;;;;;;;16.97;83.55;100273.66;5009851;28;20033;-67
2022/09/30 08:59:31;;;;;;;4.63;2.20;;;;;;;17.46;82.90;100285.81;5012933;28;20497;-67
2022/09/30 09:02:13;;;;;;;2.78;1.85;;;;;;;17.67;80.05;100279.34;5015166;28;20129;-68
2022/09/30 09:04:39;;;;;;;2.67;1.65;;;;;;;17.95;78.59;100274.25;5005544;28;20068;-68
2022/09/30 09:07:11;;;;;;;3.22;1.63;;;;;;;17.96;78.47;100272.28;5023433;28;20060;-67
2022/09/30 09:10:15;;;;;;;5.70;2.17;;;;;;;17.83;79.25;100280.25;4993077;28;20030;-68
2022/09/30 09:13:08;;;;;;;2.95;1.30;;;;;;;18.13;78.73;100273.97;5002591;28;20038;-67
2022/09/30 09:15:53;;;;;;;5.60;1.45;;;;;;;18.34;77.80;100279.03;5011050;28;20132;-68
2022/09/30 09:18:52;;;;;;;3.53;1.70;;;;;;;18.51;74.46;100274.47;5004503;28;20030;-67
2022/09/30 09:21:40;;;;;;;2.40;1.45;;;;;;;18.49;77.02;100274.13;4989455;28;20545;-67
2022/09/30 09:24:13;;;;;;;1.50;1.23;;;;;;;18.35;73.59;100283.28;4987834;28;20050;-69
2022/09/30 09:26:38;;;;;;;1.75;1.05;;;;;;;18.31;73.55;100290.75;5005182;28;20482;-67
2022/09/30 09:29:13;;;;;;;2.72;1.02;;;;;;;18.33;74.31;100290.38;5009737;28;20034;-68
2022/09/30 09:31:39;;;;;;;2.03;1.38;;;;;;;18.39;74.58;100288.72;5006932;28;20025;-67
2022/09/30 09:34:10;;;;;;;1.65;1.00;;;;;;;18.20;73.29;100290.19;5010285;28;20103;-68
2022/09/30 09:37:05;;;;;;;1.63;1.17;;;;;;;17.96;75.50;100286.66;5011084;28;20068;-68
2022/09/30 09:39:58;;;;;;;2.22;1.48;;;;;;;17.55;76.63;100291.59;5016923;28;20310;-67
2022/09/30 09:42:41;;;;;;;6.80;1.30;;;;;;;17.35;77.51;100282.50;5012673;28;20290;-67
2022/09/30 09:45:25;;;;;;;2.33;1.50;;;;;;;17.42;78.23;100295.25;5010918;28;20084;-68
2022/09/30 09:47:56;;;;;;;2.38;1.40;;;;;;;17.12;80.59;100285.91;5006997;28;20040;-68
2022/09/30 09:50:57;;;;;;;1.60;1.10;;;;;;;17.27;78.54;100283.75;5017502;28;20038;-67
2022/09/30 09:53:25;;;;;;;2.03;1.43;;;;;;;17.45;79.20;100287.03;5013574;28;20030;-68
2022/09/30 09:55:58;;;;;;;2.20;1.40;;;;;;;17.58;79.65;100289.97;5010450;28;20450;-67
2022/09/30 09:58:24;;;;;;;4.97;0.95;;;;;;;17.69;78.70;100285.16;5011551;28;20025;-67
2022/09/30 10:03:25;;;;;;;3.00;1.33;;;;;;;17.31;79.61;100289.94;5007307;28;20495;-68
2022/09/30 10:06:02;;;;;;;1.33;0.90;;;;;;;17.78;79.37;100291.63;5010612;28;20160;-67
2022/09/30 10:08:30;;;;;;;1.45;0.80;;;;;;;17.94;77.79;100288.28;5010361;28;20485;-68
2022/09/30 10:10:59;;;;;;;1.38;0.90;;;;;;;18.29;76.86;100300.56;5017103;28;20037;-68
2022/09/30 10:13:58;;;;;;;0.93;0.70;;;;;;;18.43;74.75;100295.66;5006774;28;20033;-67
2022/09/30 10:16:35;;;;;;;3.03;0.80;;;;;;;18.35;73.27;100296.19;5004605;28;20428;-68
2022/09/30 10:19:02;;;;;;;1.00;0.70;;;;;;;18.53;72.29;100293.91;5008166;28;20038;-69
2022/09/30 10:21:28;;;;;;;1.35;0.75;;;;;;;18.65;72.09;100285.13;5008147;28;20034;-68
2022/09/30 10:23:56;;;;;;;1.08;0.70;;;;;;;18.59;71.04;100295.75;5008682;28;20113;-68
2022/09/30 10:26:24;;;;;;;1.33;0.93;;;;;;;18.77;71.89;100309.84;5005616;28;20127;-68
2022/09/30 10:28:55;;;;;;;0.68;0.60;;;;;;;18.80;71.03;100302.78;5013514;28;20021;-69
2022/09/30 10:34:42;;;;;;;1.05;0.60;;;;;;;19.15;72.11;100296.63;4968367;28;20065;-66
2022/09/30 10:37:14;;;;;;;1.95;0.90;;;;;;;19.20;70.08;100303.56;4964121;28;20483;-67
2022/09/30 10:39:42;;;;;;;1.23;0.75;;;;;;;19.01;70.13;100304.34;4963988;28;20190;-67
2022/09/30 10:42:17;;;;;;;1.02;0.80;;;;;;;18.68;70.38;100308.84;4967063;28;20403;-67
2022/09/30 10:44:47;;;;;;;0.88;0.80;;;;;;;18.31;75.66;100306.38;4963778;28;20042;-66
2022/09/30 10:47:18;;;;;;;1.38;0.80;;;;;;;18.23;74.86;100304.94;4962770;28;20043;-67
2022/09/30 10:50:03;;;;;;;2.67;0.82;;;;;;;18.28;74.87;100301.75;4964158;28;20121;-67
2022/09/30 10:52:51;;;;;;;0.82;0.50;;;;;;;18.22;73.76;100296.00;4964260;28;20038;-67
2022/09/30 10:55:20;;;;;;;3.15;0.95;;;;;;;18.50;74.10;100294.78;4966257;28;20122;-67
2022/09/30 10:57:49;;;;;;;0.93;0.60;;;;;;;18.64;73.07;100297.25;4946742;28;20062;-67
2022/09/30 11:00:22;;;;;;;1.20;0.70;;;;;;;18.73;73.62;100292.00;4962590;28;20053;-68
2022/09/30 11:03:04;;;;;;;1.10;0.68;;;;;;;18.62;72.27;100292.19;4968661;28;20038;-67
2022/09/30 11:05:33;;;;;;;0.98;0.70;;;;;;;18.69;72.93;100283.13;4967795;28;20031;-67
2022/09/30 11:08:03;;;;;;;1.20;0.38;;;;;;;18.94;71.89;100286.13;4968837;28;20451;-67
2022/09/30 11:10:38;;;;;;;1.13;0.60;;;;;;;19.06;71.40;100280.03;4969407;28;20069;-67
2022/09/30 11:13:24;;;;;;;0.40;0.25;;;;;;;19.09;69.40;100281.91;4967086;28;20039;-67
2022/09/30 11:16:11;;;;;;;0.30;0.20;;;;;;;19.08;68.28;100280.41;4968268;28;20431;-67
2022/09/30 11:18:54;;;;;;;0.70;0.50;;;;;;;19.26;66.91;100286.25;4968521;28;20042;-67
2022/09/30 11:21:39;;;;;;;0.45;0.35;;;;;;;19.46;65.41;100289.75;4967778;28;20039;-67
2022/09/30 11:24:35;;;;;;;0.65;0.20;;;;;;;19.18;65.08;100295.75;4966343;28;20376;-67
2022/09/30 11:27:16;;;;;;;0.20;0.20;;;;;;;19.11;64.58;100293.19;4957639;28;20050;-67
2022/09/30 11:29:47;;;;;;;0.22;0.20;;;;;;;18.91;64.35;100287.00;4964708;28;20062;-67
2022/09/30 11:32:25;;;;;;;0.38;0.28;;;;;;;18.64;64.27;100281.63;4967756;28;20483;-67
2022/09/30 11:35:16;;;;;;;0.52;0.30;;;;;;;18.66;64.13;100292.16;4963683;28;20037;-67
2022/09/30 11:38:01;;;;;;;0.63;0.30;;;;;;;18.59;65.33;100287.59;4961933;28;20464;-67
2022/09/30 11:40:34;;;;;;;1.05;0.30;;;;;;;18.16;66.51;100283.25;4966601;28;20038;-67
2022/09/30 11:43:06;;;;;;;0.25;0.25;;;;;;;18.08;67.24;100284.56;4966824;28;20034;-67
2022/09/30 11:45:37;;;;;;;0.52;0.40;;;;;;;18.13;67.63;100284.09;4967284;28;21025;-67
2022/09/30 11:48:20;;;;;;;0.52;0.30;;;;;;;18.02;68.25;100278.81;4967611;28;20039;-67
2022/09/30 11:51:30;;;;;;;0.45;0.32;;;;;;;17.90;66.96;100276.66;4967679;28;20415;-67
2022/09/30 11:54:10;;;;;;;0.70;0.45;;;;;;;18.01;67.26;100274.53;4953411;28;20061;-67
2022/09/30 11:56:48;;;;;;;1.02;0.65;;;;;;;18.06;66.84;100270.59;4963026;28;20038;-67